createdAt,value
2024-03-02T00:01:16.705Z,94513.06
2024-03-02T00:03:46.954Z,94510.19
2024-03-02T00:06:35.653Z,94512.28
2024-03-02T00:09:06.060Z,94500.88
2024-03-02T00:11:49.675Z,94501.13
2024-03-02T00:17:25.974Z,94501.69
2024-03-02T00:20:04.034Z,94496.22
2024-03-02T00:22:34.229Z,94499.06
2024-03-02T00:25:08.845Z,94491.53
2024-03-02T00:27:36.888Z,94493.34
2024-03-02T00:30:34.899Z,94487.94
2024-03-02T00:33:15.656Z,94485.34
2024-03-02T00:35:52.926Z,94493.38
2024-03-02T00:38:26.945Z,94485.59
2024-03-02T00:41:01.746Z,94493.38
2024-03-02T00:43:38.661Z,94481.19
2024-03-02T00:46:09.033Z,94485.34
2024-03-02T00:49:03.022Z,94482.78
2024-03-02T00:52:03.684Z,94486.66
2024-03-02T00:54:34.056Z,94480.44
2024-03-02T00:57:09.992Z,94481.72
2024-03-02T00:59:43.546Z,94475.53
2024-03-02T01:02:17.504Z,94474.22
2024-03-02T01:04:50.820Z,94467.72
2024-03-02T01:07:34.075Z,94467.19
2024-03-02T01:10:13.291Z,94463.84
2024-03-02T01:13:03.753Z,94472.66
2024-03-02T01:15:38.702Z,94476.00
2024-03-02T01:18:16.373Z,94476.53
2024-03-02T01:20:57.909Z,94477.56
2024-03-02T01:23:49.177Z,94477.06
2024-03-02T01:26:19.724Z,94474.44
2024-03-02T01:28:55.002Z,94472.66
2024-03-02T01:31:23.000Z,94478.59
2024-03-02T01:33:57.965Z,94476.03
2024-03-02T01:37:25.511Z,94473.69
2024-03-02T01:39:37.199Z,94480.19
2024-03-02T01:42:22.480Z,94477.59
2024-03-02T01:44:56.048Z,94475.00
2024-03-02T01:47:26.472Z,94481.72
2024-03-02T01:49:58.809Z,94473.44
2024-03-02T01:52:31.875Z,94472.16
2024-03-02T01:55:21.393Z,94473.44
2024-03-02T01:57:52.818Z,94473.44
2024-03-02T02:00:27.587Z,94473.44
2024-03-02T02:02:59.630Z,94469.53
2024-03-02T02:05:32.243Z,94462.31
2024-03-02T02:08:07.879Z,94451.16
2024-03-02T02:10:36.968Z,94453.50
2024-03-02T02:13:10.411Z,94448.56
2024-03-02T02:15:43.518Z,94443.88
2024-03-02T02:18:26.539Z,94448.84
2024-03-02T02:21:08.771Z,94441.84
2024-03-02T02:23:43.320Z,94443.91
2024-03-02T02:26:11.310Z,94437.94
2024-03-02T02:28:53.051Z,94434.84
2024-03-02T02:31:20.886Z,94429.41
2024-03-02T02:33:48.821Z,94434.31
2024-03-02T02:36:17.074Z,94435.88
2024-03-02T02:39:01.957Z,94429.94
2024-03-02T02:41:48.537Z,94431.97
2024-03-02T02:44:28.644Z,94428.38
2024-03-02T02:47:13.903Z,94427.84
2024-03-02T02:49:44.583Z,94428.63
2024-03-02T02:52:14.814Z,94432.25
2024-03-02T02:54:43.647Z,94427.59
2024-03-02T02:57:14.195Z,94432.50
2024-03-02T02:59:52.220Z,94438.22
2024-03-02T03:02:34.207Z,94431.97
2024-03-02T03:05:09.662Z,94435.63
2024-03-02T03:07:52.288Z,94436.13
2024-03-02T03:10:31.679Z,94442.84
2024-03-02T03:13:02.224Z,94443.16
2024-03-02T03:15:44.753Z,94439.78
2024-03-02T03:18:27.580Z,94435.88
2024-03-02T03:20:57.672Z,94450.41
2024-03-02T03:23:57.427Z,94447.81
2024-03-02T03:26:18.390Z,94448.31
2024-03-02T03:28:46.477Z,94449.88
2024-03-02T03:31:24.333Z,94445.97
2024-03-02T03:33:53.857Z,94451.44
2024-03-02T03:36:26.383Z,94454.28
2024-03-02T03:38:58.789Z,94454.53
2024-03-02T03:41:26.715Z,94450.91
2024-03-02T03:44:01.859Z,94449.88
2024-03-02T03:46:29.832Z,94459.97
2024-03-02T03:49:02.449Z,94458.16
2024-03-02T03:51:36.692Z,94455.31
2024-03-02T03:54:18.746Z,94455.59
2024-03-02T03:59:29.375Z,94456.88
2024-03-02T04:01:59.824Z,94459.94
2024-03-02T04:04:33.830Z,94448.06
2024-03-02T04:07:04.259Z,94457.13
2024-03-02T04:09:38.397Z,94461.28
2024-03-02T04:12:09.705Z,94451.69
2024-03-02T04:14:43.820Z,94454.78
2024-03-02T04:17:14.980Z,94453.25
2024-03-02T04:20:05.148Z,94453.72
2024-03-02T04:22:42.959Z,94453.25
2024-03-02T04:25:14.188Z,94451.16
2024-03-02T04:27:42.509Z,94454.28
2024-03-02T04:30:27.542Z,94467.47
2024-03-02T04:33:06.210Z,94468.00
2024-03-02T04:35:50.657Z,94469.53
2024-03-02T04:38:52.987Z,94474.97
2024-03-02T04:41:19.763Z,94478.09
2024-03-02T04:44:12.127Z,94469.28
2024-03-02T04:46:43.850Z,94465.66
2024-03-02T04:49:24.349Z,94470.31
2024-03-02T04:51:55.743Z,94477.03
2024-03-02T04:54:29.751Z,94478.09
2024-03-02T04:57:01.101Z,94485.09
2024-03-02T04:59:31.488Z,94481.97
2024-03-02T05:02:02.123Z,94489.50
2024-03-02T05:04:37.109Z,94485.63
2024-03-02T05:07:09.825Z,94500.91
2024-03-02T05:09:48.647Z,94497.75
2024-03-02T05:12:38.671Z,94507.09
2024-03-02T05:15:23.237Z,94514.09
2024-03-02T05:18:07.291Z,94506.56
2024-03-02T05:20:51.422Z,94509.72
2024-03-02T05:23:32.439Z,94505.00
2024-03-02T05:26:05.536Z,94505.03
2024-03-02T05:28:46.011Z,94501.94
2024-03-02T05:31:19.594Z,94502.72
2024-03-02T05:33:57.628Z,94497.00
2024-03-02T05:36:25.933Z,94499.06
2024-03-02T05:38:53.455Z,94504.75
2024-03-02T05:41:21.052Z,94503.47
2024-03-02T05:43:48.985Z,94495.44
2024-03-02T05:46:17.117Z,94507.34
2024-03-02T05:48:45.052Z,94504.53
2024-03-02T05:51:14.172Z,94513.59
2024-03-02T05:53:43.167Z,94508.41
2024-03-02T05:56:18.375Z,94505.56
2024-03-02T05:59:05.275Z,94510.22
2024-03-02T06:01:35.642Z,94511.75
2024-03-02T06:04:06.178Z,94508.41
2024-03-02T06:06:37.071Z,94513.59
2024-03-02T06:09:15.033Z,94513.81
2024-03-02T06:11:47.502Z,94520.03
2024-03-02T06:14:21.498Z,94509.16
2024-03-02T06:16:54.592Z,94526.53
2024-03-02T06:19:32.197Z,94524.97
2024-03-02T06:22:11.477Z,94519.81
2024-03-02T06:24:39.595Z,94518.50
2024-03-02T06:27:17.468Z,94522.38
2024-03-02T06:29:50.830Z,94523.16
2024-03-02T06:32:38.981Z,94509.19
2024-03-02T06:35:12.150Z,94514.34
2024-03-02T06:37:54.606Z,94521.06
2024-03-02T06:40:24.596Z,94512.00
2024-03-02T06:43:05.325Z,94526.78
2024-03-02T06:45:43.630Z,94515.38
2024-03-02T06:48:26.064Z,94512.81
2024-03-02T06:51:00.666Z,94515.13
2024-03-02T06:53:38.917Z,94516.94
2024-03-02T06:56:12.226Z,94519.53
2024-03-02T06:58:46.341Z,94518.25
2024-03-02T07:01:14.570Z,94513.59
2024-03-02T07:03:45.355Z,94517.97
2024-03-02T07:06:13.354Z,94508.91
2024-03-02T07:08:46.236Z,94512.25
2024-03-02T07:11:16.768Z,94515.91
2024-03-02T07:13:45.179Z,94506.06
2024-03-02T07:16:34.437Z,94504.47
2024-03-02T07:19:03.293Z,94509.16
2024-03-02T07:21:37.163Z,94510.44
2024-03-02T07:24:05.309Z,94515.38
2024-03-02T07:29:03.961Z,94524.19
2024-03-02T07:31:31.482Z,94523.66
2024-03-02T07:34:01.593Z,94518.97
2024-03-02T07:36:36.439Z,94525.72
2024-03-02T07:39:26.959Z,94532.69
2024-03-02T07:42:04.256Z,94532.38
2024-03-02T07:44:42.917Z,94534.91
2024-03-02T07:47:15.003Z,94523.00
2024-03-02T07:49:49.697Z,94533.47
2024-03-02T07:52:25.321Z,94524.59
2024-03-02T07:55:03.667Z,94527.94
2024-03-02T07:57:31.552Z,94522.94
2024-03-02T08:00:02.895Z,94522.84
2024-03-02T08:02:40.060Z,94533.38
2024-03-02T08:05:09.084Z,94538.59
2024-03-02T08:07:37.178Z,94542.78
2024-03-02T08:10:06.130Z,94543.72
2024-03-02T08:12:33.856Z,94539.63
2024-03-02T08:15:01.692Z,94539.88
2024-03-02T08:17:38.169Z,94532.00
2024-03-02T08:20:07.173Z,94536.00
2024-03-02T08:22:37.744Z,94535.44
2024-03-02T08:25:09.756Z,94535.03
2024-03-02T08:27:42.270Z,94549.16
2024-03-02T08:30:13.143Z,94539.28
2024-03-02T08:32:43.074Z,94546.41
2024-03-02T08:35:10.842Z,94555.84
2024-03-02T08:37:41.182Z,94508.41
2024-03-02T08:40:11.378Z,94551.91
2024-03-02T08:42:39.868Z,94553.16
2024-03-02T08:45:08.886Z,94557.34
2024-03-02T08:47:38.745Z,94552.81
2024-03-02T08:50:18.852Z,94560.16
2024-03-02T08:52:55.481Z,94554.38
2024-03-02T08:55:29.654Z,94560.13
2024-03-02T08:58:01.846Z,94551.47
2024-03-02T09:00:34.320Z,94552.53
2024-03-02T09:03:02.499Z,94553.91
2024-03-02T09:05:33.472Z,94552.81
2024-03-02T09:08:01.240Z,94553.81
2024-03-02T09:10:29.092Z,94548.13
2024-03-02T09:12:58.899Z,94544.34
2024-03-02T09:15:30.036Z,94552.59
2024-03-02T09:17:58.536Z,94552.91
2024-03-02T09:20:26.363Z,94553.22
2024-03-02T09:22:56.372Z,94553.38
2024-03-02T09:25:24.558Z,94557.44
2024-03-02T09:27:52.421Z,94550.94
2024-03-02T09:30:23.381Z,94553.13
2024-03-02T09:32:51.386Z,94550.50
2024-03-02T09:35:22.139Z,94543.56
2024-03-02T09:37:50.504Z,94549.38
2024-03-02T09:40:18.923Z,94539.66
2024-03-02T09:42:52.477Z,94540.91
2024-03-02T09:45:32.863Z,94538.59
2024-03-02T09:48:06.817Z,94540.16
2024-03-02T09:50:37.091Z,94545.50
2024-03-02T09:53:08.856Z,94538.22
2024-03-02T09:55:36.518Z,94536.00
2024-03-02T09:58:04.311Z,94541.69
2024-03-02T10:00:31.787Z,94532.50
2024-03-02T10:02:59.597Z,94539.50
2024-03-02T10:05:30.743Z,94534.94
2024-03-02T10:08:02.063Z,94532.19
2024-03-02T10:10:45.452Z,94523.72
2024-03-02T10:13:14.278Z,94529.44
2024-03-02T10:15:42.753Z,94526.19
2024-03-02T10:18:14.301Z,94516.16
2024-03-02T10:20:42.562Z,94509.22
2024-03-02T10:23:14.811Z,94508.88
2024-03-02T10:25:51.237Z,94504.00
2024-03-02T10:28:22.771Z,94510.38
2024-03-02T10:30:52.386Z,94512.72
2024-03-02T10:33:20.206Z,94511.91
2024-03-02T10:35:52.972Z,94514.78
2024-03-02T10:38:20.484Z,94516.84
2024-03-02T10:40:50.993Z,94510.47
2024-03-02T10:43:20.076Z,94500.50
2024-03-02T10:45:51.790Z,94502.53
2024-03-02T10:48:19.437Z,94499.81
2024-03-02T10:50:47.153Z,94489.06
2024-03-02T10:53:14.534Z,94489.75
2024-03-02T10:55:42.457Z,94478.63
2024-03-02T10:58:27.201Z,94479.72
2024-03-02T11:01:03.220Z,94478.56
2024-03-02T11:03:50.433Z,94466.84
2024-03-02T11:06:27.698Z,94474.69
2024-03-02T11:09:29.439Z,94464.09
2024-03-02T11:12:42.736Z,94459.03
2024-03-02T11:15:20.783Z,94455.06
2024-03-02T11:18:26.021Z,94450.19
2024-03-02T11:28:22.894Z,94399.13
2024-03-02T11:30:55.799Z,94429.47
2024-03-02T11:33:28.450Z,94421.78
2024-03-02T11:35:58.079Z,94421.63
2024-03-02T11:38:30.410Z,94421.94
2024-03-02T11:41:03.107Z,94419.63
2024-03-02T14:05:55.791Z,94248.34
2024-03-02T14:08:39.248Z,94243.25
2024-03-02T14:11:06.642Z,94248.91
2024-03-02T14:13:34.065Z,94235.97
2024-03-02T14:16:01.513Z,94247.13
2024-03-02T14:18:28.963Z,94241.53
2024-03-02T14:20:57.329Z,94237.00
2024-03-02T14:23:24.644Z,94239.69
2024-03-02T14:25:51.971Z,94241.56
2024-03-02T14:28:43.083Z,94233.91
2024-03-02T14:31:08.037Z,94236.25
2024-03-02T14:33:35.571Z,94228.31
2024-03-02T14:36:03.086Z,94220.25
2024-03-02T14:38:30.441Z,94223.13
2024-03-02T14:40:57.847Z,94227.34
2024-03-02T14:43:25.107Z,94209.47
2024-03-02T14:45:52.472Z,94212.41
2024-03-02T14:48:19.895Z,94218.94
2024-03-02T14:50:47.238Z,94219.88
2024-03-02T14:53:14.539Z,94210.88
2024-03-02T14:55:41.807Z,94216.38
2024-03-02T14:58:09.439Z,94211.94
2024-03-02T15:00:36.809Z,94209.97
2024-03-02T15:03:06.786Z,94211.06
2024-03-02T15:05:34.267Z,94208.91
2024-03-02T15:08:03.868Z,94217.34
2024-03-02T15:10:31.699Z,94205.28
2024-03-02T15:12:59.632Z,94209.06
2024-03-02T15:15:27.717Z,94205.06
2024-03-02T15:17:55.058Z,94191.91
2024-03-02T15:20:22.810Z,94191.13
2024-03-02T15:22:50.208Z,94194.09
2024-03-02T15:25:17.640Z,94195.09
2024-03-02T15:27:45.266Z,94197.28
2024-03-02T15:30:12.987Z,94190.91
2024-03-02T15:32:40.374Z,94188.03
2024-03-02T15:35:08.521Z,94195.19
2024-03-02T15:37:35.845Z,94190.97
2024-03-02T15:40:07.599Z,94199.47
2024-03-02T15:42:35.776Z,94193.25
2024-03-02T17:43:52.679Z,94202.78
2024-03-02T17:47:56.789Z,94201.03
2024-03-02T18:00:36.319Z,94191.00
2024-03-02T18:11:13.178Z,94191.88
2024-03-02T18:14:28.129Z,94198.28
2024-03-02T18:21:00.856Z,94194.78
2024-03-02T18:32:50.387Z,94185.31
2024-03-02T18:39:10.355Z,94183.06
2024-03-02T18:41:46.411Z,94183.38
2024-03-02T18:45:11.599Z,94180.00
2024-03-02T18:54:15.128Z,94180.59
2024-03-02T18:57:28.110Z,94175.78
2024-03-02T19:02:04.345Z,94176.66
2024-03-02T19:17:11.854Z,94171.81
2024-03-02T19:18:06.615Z,94179.13
2024-03-02T19:21:03.367Z,94178.25
2024-03-02T19:24:05.016Z,94177.44
2024-03-02T19:33:34.216Z,94175.75
2024-03-02T19:36:18.637Z,94166.09
2024-03-02T19:39:28.380Z,94171.59
2024-03-02T19:42:06.693Z,94170.44
2024-03-02T19:44:44.555Z,94163.53
2024-03-02T19:47:38.708Z,94168.19
2024-03-02T19:50:52.349Z,94160.19
2024-03-02T19:53:21.299Z,94154.34
2024-03-02T19:59:15.503Z,94145.44
2024-03-02T20:02:14.438Z,94157.31
2024-03-02T20:02:16.772Z,94146.78
2024-03-02T20:04:53.793Z,94148.09
2024-03-02T20:07:25.943Z,94142.66
2024-03-02T20:10:06.186Z,94140.13
2024-03-02T20:12:43.574Z,94132.00
2024-03-02T20:15:35.688Z,94138.03
2024-03-02T20:18:15.124Z,94135.97
2024-03-02T20:20:58.877Z,94131.88
2024-03-02T20:23:54.052Z,94128.84
2024-03-02T20:29:15.759Z,94126.66
2024-03-02T20:32:01.892Z,94132.66
2024-03-02T20:34:42.568Z,94124.88
2024-03-02T20:37:25.552Z,94121.88
2024-03-02T20:40:00.592Z,94108.88
2024-03-02T20:42:39.852Z,94111.59
2024-03-02T20:45:10.536Z,94116.44
2024-03-02T20:47:42.942Z,94127.75
2024-03-02T20:50:17.014Z,94117.91
2024-03-02T20:52:53.898Z,94114.56
2024-03-02T20:55:31.838Z,94100.38
2024-03-02T20:58:07.948Z,94094.06
2024-03-02T21:05:39.838Z,94092.31
2024-03-02T21:12:19.030Z,94092.78
2024-03-02T21:15:01.208Z,94077.94
2024-03-02T21:17:56.287Z,94080.09
2024-03-02T21:20:54.800Z,94082.13
2024-03-02T21:31:35.779Z,94085.78
2024-03-02T21:50:25.882Z,94058.44
2024-03-02T22:09:38.027Z,94038.00
2024-03-02T22:13:05.440Z,94037.28
2024-03-02T22:15:37.509Z,94041.28
2024-03-02T22:18:33.521Z,94037.47
2024-03-02T22:21:14.450Z,94037.81
2024-03-02T22:24:09.881Z,94041.25
2024-03-02T22:27:03.959Z,94045.16
2024-03-02T22:32:55.570Z,93989.09
2024-03-02T22:36:28.916Z,94038.06
2024-03-02T22:40:15.717Z,94037.81
2024-03-02T22:43:04.075Z,94039.28
2024-03-02T22:45:31.660Z,94036.41
2024-03-02T22:48:00.177Z,94042.66
2024-03-02T22:50:28.661Z,94042.84
2024-03-02T22:52:55.955Z,94051.63
2024-03-02T22:56:16.429Z,94044.69
2024-03-02T23:01:25.845Z,94047.41
2024-03-02T23:02:21.560Z,94051.38
2024-03-02T23:05:22.242Z,94048.41
2024-03-02T23:09:19.271Z,94045.03
2024-03-02T23:11:34.585Z,94057.59
2024-03-02T23:14:39.881Z,94052.78
2024-03-02T23:17:25.917Z,94054.81
2024-03-02T23:20:14.430Z,94052.38
2024-03-02T23:23:10.894Z,94053.69
2024-03-02T23:29:46.345Z,94038.38
2024-03-02T23:32:42.922Z,94031.53
2024-03-02T23:35:32.523Z,94024.97
2024-03-02T23:38:51.234Z,94030.16
2024-03-02T23:41:37.509Z,94034.84
2024-03-02T23:47:17.544Z,94031.47
2024-03-02T23:53:08.058Z,94022.06
2024-03-02T23:55:51.839Z,94031.28
2024-03-02T23:58:22.414Z,94027.72
